createdAt,value
2018-07-11T00:02:18.528Z,10.05
2018-07-11T00:04:46.553Z,8.80
2018-07-11T00:07:14.579Z,9.60
2018-07-11T00:09:42.613Z,10.00
2018-07-11T00:12:10.652Z,9.10
2018-07-11T00:14:38.679Z,10.35
2018-07-11T00:17:10.964Z,11.73
2018-07-11T00:19:39.060Z,9.85
2018-07-11T00:22:07.081Z,10.00
2018-07-11T00:24:35.083Z,11.60
2018-07-11T00:27:03.132Z,10.25
2018-07-11T00:29:31.165Z,9.88
2018-07-11T00:31:59.205Z,10.27
2018-07-11T00:34:27.217Z,10.68
2018-07-11T00:36:55.265Z,12.85
2018-07-11T00:39:23.092Z,10.53
2018-07-11T00:41:51.131Z,10.60
2018-07-11T00:44:19.176Z,10.40
2018-07-11T00:46:47.200Z,12.23
2018-07-11T00:49:15.216Z,10.68
2018-07-11T00:51:43.249Z,13.03
2018-07-11T00:54:11.332Z,11.50
2018-07-11T00:56:40.276Z,11.70
2018-07-11T00:59:14.337Z,12.47
2018-07-11T01:01:42.368Z,13.55
2018-07-11T01:04:10.424Z,14.85
2018-07-11T01:06:38.447Z,11.75
2018-07-11T01:09:06.479Z,11.57
2018-07-11T01:11:36.008Z,13.20
2018-07-11T01:14:04.017Z,12.20
2018-07-11T01:16:32.708Z,12.55
2018-07-11T01:19:02.065Z,12.93
2018-07-11T01:21:30.844Z,13.10
2018-07-11T01:23:58.885Z,13.13
2018-07-11T01:26:28.417Z,13.13
2018-07-11T01:28:56.454Z,12.93
2018-07-11T01:31:25.592Z,14.75
2018-07-11T01:33:54.065Z,13.58
2018-07-11T01:36:22.116Z,13.22
2018-07-11T01:38:50.147Z,14.85
2018-07-11T01:41:18.180Z,14.15
2018-07-11T01:43:46.544Z,15.25
2018-07-11T01:46:14.929Z,14.10
2018-07-11T01:48:43.196Z,14.45
2018-07-11T01:51:11.240Z,14.38
2018-07-11T01:53:39.273Z,13.48
2018-07-11T01:56:07.136Z,14.30
2018-07-11T01:58:34.989Z,13.65
2018-07-11T02:01:03.515Z,15.25
2018-07-11T02:03:31.591Z,15.40
2018-07-11T02:05:59.611Z,14.83
2018-07-11T02:08:27.670Z,16.05
2018-07-11T02:10:56.479Z,14.83
2018-07-11T02:13:24.771Z,15.60
2018-07-11T02:15:52.867Z,16.60
2018-07-11T02:18:22.721Z,15.32
2018-07-11T02:20:51.717Z,15.98
2018-07-11T02:23:19.781Z,14.80
2018-07-11T02:25:47.980Z,17.85
2018-07-11T02:28:16.023Z,16.55
2018-07-11T02:30:44.134Z,16.95
2018-07-11T02:33:12.159Z,17.48
2018-07-11T02:35:40.200Z,19.00
2018-07-11T02:38:08.245Z,18.32
2018-07-11T02:40:36.281Z,18.02
2018-07-11T02:43:04.316Z,17.77
2018-07-11T02:45:32.340Z,18.32
2018-07-11T02:48:00.180Z,18.92
2018-07-11T02:50:28.216Z,18.90
2018-07-11T02:52:56.269Z,20.20
2018-07-11T02:55:24.288Z,18.87
2018-07-11T02:57:52.340Z,18.73
2018-07-11T03:00:20.376Z,19.60
2018-07-11T03:02:48.424Z,19.70
2018-07-11T03:05:16.452Z,20.77
2018-07-11T03:07:44.516Z,20.43
2018-07-11T03:10:12.549Z,20.90
2018-07-11T03:12:40.589Z,21.93
2018-07-11T03:15:08.608Z,22.67
2018-07-11T03:17:36.656Z,22.70
2018-07-11T03:20:04.694Z,23.60
2018-07-11T03:22:32.765Z,23.40
2018-07-11T03:25:00.809Z,25.55
2018-07-11T03:27:28.861Z,24.23
2018-07-11T03:29:56.885Z,27.13
2018-07-11T03:32:24.913Z,27.48
2018-07-11T03:34:52.947Z,27.00
2018-07-11T03:37:20.985Z,28.80
2018-07-11T03:39:49.004Z,29.20
2018-07-11T03:42:17.038Z,29.48
2018-07-11T03:44:45.085Z,29.63
2018-07-11T03:47:13.131Z,30.82
2018-07-11T03:49:41.183Z,32.53
2018-07-11T03:52:09.229Z,32.20
2018-07-11T03:54:37.293Z,33.67
2018-07-11T03:57:05.329Z,32.00
2018-07-11T03:59:33.355Z,33.33
2018-07-11T04:02:01.388Z,34.27
2018-07-11T04:04:29.440Z,36.00
2018-07-11T04:06:57.481Z,36.73
2018-07-11T04:09:25.510Z,38.38
2018-07-11T04:11:54.064Z,37.60
2018-07-11T04:14:22.108Z,38.75
2018-07-11T04:16:50.136Z,38.45
2018-07-11T04:19:18.192Z,37.83
2018-07-11T04:21:46.228Z,39.03
2018-07-11T04:24:14.267Z,36.28
2018-07-11T04:26:42.301Z,27.55
2018-07-11T04:29:10.380Z,25.10
2018-07-11T04:31:38.425Z,25.80
2018-07-11T04:34:06.688Z,24.83
2018-07-11T04:36:34.732Z,27.52
2018-07-11T04:39:03.404Z,27.17
2018-07-11T04:41:31.452Z,30.10
2018-07-11T04:43:59.296Z,30.02
2018-07-11T04:46:27.528Z,34.63
2018-07-11T04:48:55.565Z,33.92
2018-07-11T04:51:23.406Z,37.98
2018-07-11T04:53:51.608Z,39.58
2018-07-11T04:56:19.658Z,43.10
2018-07-11T04:58:47.767Z,42.08
2018-07-11T05:01:15.765Z,42.13
2018-07-11T05:03:43.788Z,41.18
2018-07-11T05:06:11.824Z,42.70
2018-07-11T05:08:39.849Z,44.45
2018-07-11T05:11:07.908Z,45.52
2018-07-11T05:13:35.936Z,45.80
2018-07-11T05:16:03.960Z,49.35
2018-07-11T05:18:31.984Z,46.33
2018-07-11T05:21:00.038Z,45.65
2018-07-11T05:23:28.095Z,47.15
2018-07-11T05:25:56.131Z,46.05
2018-07-11T05:28:24.179Z,44.30
2018-07-11T05:30:52.297Z,43.92
2018-07-11T05:33:20.348Z,44.13
2018-07-11T05:35:48.392Z,46.00
2018-07-11T05:38:16.429Z,44.60
2018-07-11T05:40:44.464Z,44.55
2018-07-11T05:43:12.566Z,43.65
2018-07-11T05:45:40.592Z,43.05
2018-07-11T05:48:08.641Z,40.73
2018-07-11T05:50:36.677Z,41.10
2018-07-11T05:53:04.745Z,40.12
2018-07-11T05:55:32.845Z,39.00
2018-07-11T05:58:00.872Z,38.65
2018-07-11T06:00:28.908Z,38.73
2018-07-11T06:02:56.940Z,36.80
2018-07-11T06:05:25.014Z,37.58
2018-07-11T06:07:53.052Z,35.10
2018-07-11T06:10:21.145Z,35.73
2018-07-11T06:12:49.173Z,37.95
2018-07-11T06:15:17.208Z,36.88
2018-07-11T06:17:45.278Z,37.73
2018-07-11T06:20:13.374Z,38.08
2018-07-11T06:22:41.379Z,36.70
2018-07-11T06:25:09.396Z,36.08
2018-07-11T06:27:37.443Z,35.90
2018-07-11T06:30:05.544Z,32.80
2018-07-11T06:32:33.565Z,33.20
2018-07-11T06:35:01.667Z,33.42
2018-07-11T06:37:29.688Z,32.90
2018-07-11T06:39:57.736Z,29.92
2018-07-11T06:42:25.837Z,31.07
2018-07-11T06:44:53.876Z,29.83
2018-07-11T06:47:21.916Z,31.93
2018-07-11T06:49:49.952Z,31.97
2018-07-11T06:52:18.007Z,31.68
2018-07-11T06:54:46.072Z,30.48
2018-07-11T06:57:14.105Z,30.50
2018-07-11T06:59:42.194Z,29.35
2018-07-11T07:02:10.228Z,30.77
2018-07-11T07:04:38.305Z,29.27
2018-07-11T07:07:06.344Z,29.67
2018-07-11T07:09:34.405Z,28.63
2018-07-11T07:12:02.450Z,30.62
2018-07-11T07:14:30.309Z,27.02
2018-07-11T07:16:58.144Z,27.65
2018-07-11T07:19:26.169Z,27.32
2018-07-11T07:21:54.328Z,25.82
2018-07-11T07:24:22.361Z,25.70
2018-07-11T07:26:50.444Z,24.93
2018-07-11T07:29:18.480Z,25.08
2018-07-11T07:31:46.533Z,26.45
2018-07-11T07:34:14.560Z,24.80
2018-07-11T07:36:42.454Z,23.85
2018-07-11T07:39:10.957Z,23.77
2018-07-11T07:41:39.016Z,22.80
2018-07-11T07:44:08.295Z,22.00
2018-07-11T07:46:36.316Z,21.12
2018-07-11T07:49:04.629Z,18.20
2018-07-11T07:51:32.476Z,16.40
2018-07-11T07:54:00.513Z,14.13
2018-07-11T07:56:28.583Z,14.07
2018-07-11T07:58:56.611Z,14.73
2018-07-11T08:01:24.668Z,14.95
2018-07-11T08:03:52.715Z,14.45
2018-07-11T08:06:20.757Z,14.47
2018-07-11T08:08:48.783Z,13.62
2018-07-11T08:11:16.800Z,13.50
2018-07-11T08:13:44.849Z,13.10
2018-07-11T08:16:12.880Z,13.35
2018-07-11T08:18:40.907Z,13.10
2018-07-11T08:21:08.990Z,11.47
2018-07-11T08:23:48.524Z,11.88
2018-07-11T08:27:25.926Z,12.07
2018-07-11T08:30:03.661Z,11.05
2018-07-11T08:32:41.129Z,11.12
2018-07-11T08:35:41.664Z,11.15
2018-07-11T08:39:21.120Z,11.30
2018-07-11T08:42:03.310Z,9.80
2018-07-11T08:44:42.272Z,10.00
2018-07-11T08:47:20.697Z,11.00
2018-07-11T08:50:04.412Z,10.10
2018-07-11T08:52:40.532Z,10.32
2018-07-11T08:55:18.125Z,11.05
2018-07-11T08:59:33.726Z,10.00
2018-07-11T09:02:11.782Z,9.23
2018-07-11T09:04:54.173Z,9.15
2018-07-11T09:07:27.760Z,8.90
2018-07-11T09:12:04.200Z,9.80
2018-07-11T09:14:47.036Z,9.20
2018-07-11T09:17:40.579Z,10.20
2018-07-11T09:22:19.448Z,8.63
2018-07-11T09:24:48.629Z,9.55
2018-07-11T09:27:16.652Z,9.60
2018-07-11T09:29:45.381Z,10.80
2018-07-11T09:32:13.961Z,9.50
2018-07-11T09:34:42.552Z,8.83
2018-07-11T09:37:10.641Z,8.58
2018-07-11T09:39:38.900Z,8.90
2018-07-11T09:42:07.025Z,8.30
2018-07-11T09:44:35.179Z,8.30
2018-07-11T09:47:08.489Z,8.95
2018-07-11T09:49:36.537Z,10.00
2018-07-11T09:52:04.576Z,10.32
2018-07-11T09:54:33.064Z,9.90
2018-07-11T09:57:01.181Z,10.00
2018-07-11T09:59:29.262Z,9.80
2018-07-11T10:01:57.261Z,10.63
2018-07-11T10:04:25.483Z,11.67
2018-07-11T10:06:53.518Z,12.10
2018-07-11T10:09:21.592Z,11.60
2018-07-11T10:11:49.658Z,13.13
2018-07-11T10:14:17.728Z,13.55
2018-07-11T10:16:45.765Z,12.53
2018-07-11T10:19:13.780Z,12.40
2018-07-11T10:21:41.853Z,12.90
2018-07-11T10:24:09.862Z,13.80
2018-07-11T10:26:37.903Z,12.00
2018-07-11T10:29:05.940Z,5.80
2018-07-11T10:31:33.976Z,5.95
2018-07-11T10:34:01.998Z,7.15
2018-07-11T10:36:30.029Z,6.85
2018-07-11T10:38:58.085Z,6.30
2018-07-11T10:41:26.091Z,7.05
2018-07-11T10:43:54.109Z,5.50
2018-07-11T10:46:22.122Z,5.60
2018-07-11T10:48:50.131Z,5.42
2018-07-11T10:51:18.157Z,6.10
2018-07-11T10:53:46.183Z,5.47
2018-07-11T10:56:14.021Z,5.62
2018-07-11T10:58:42.072Z,4.40
2018-07-11T11:01:10.222Z,3.90
2018-07-11T11:03:38.239Z,4.60
2018-07-11T11:06:06.284Z,5.03
2018-07-11T11:08:34.315Z,4.22
2018-07-11T11:11:02.347Z,4.50
2018-07-11T11:13:30.378Z,5.50
2018-07-11T11:15:58.409Z,4.78
2018-07-11T11:18:26.339Z,4.70
2018-07-11T11:20:55.608Z,4.97
2018-07-11T11:23:23.888Z,4.90
2018-07-11T11:25:51.996Z,5.40
2018-07-11T11:28:20.024Z,6.13
2018-07-11T11:30:48.134Z,5.78
2018-07-11T11:33:16.146Z,5.75
2018-07-11T11:35:44.191Z,5.90
2018-07-11T11:38:12.208Z,6.03
2018-07-11T11:40:40.278Z,6.70
2018-07-11T11:43:08.309Z,7.50
2018-07-11T11:45:36.163Z,7.25
2018-07-11T11:48:04.413Z,7.35
2018-07-11T11:50:32.507Z,7.37
2018-07-11T11:53:01.370Z,8.70
2018-07-11T11:55:29.408Z,8.00
2018-07-11T11:57:57.444Z,9.33
2018-07-11T12:00:25.275Z,10.82
2018-07-11T12:02:53.344Z,10.00
2018-07-11T12:05:21.409Z,9.75
2018-07-11T12:07:49.480Z,9.45
2018-07-11T12:10:17.861Z,9.60
2018-07-11T12:12:45.937Z,9.10
2018-07-11T12:15:14.164Z,9.83
2018-07-11T12:17:42.220Z,10.40
2018-07-11T12:20:10.036Z,9.70
2018-07-11T12:22:38.069Z,10.65
2018-07-11T12:25:06.144Z,10.70
2018-07-11T12:27:34.189Z,11.65
2018-07-11T12:30:02.232Z,10.13
2018-07-11T12:32:30.288Z,10.00
2018-07-11T12:34:58.331Z,9.35
2018-07-11T12:37:26.390Z,9.40
2018-07-11T12:39:54.427Z,10.18
2018-07-11T12:42:22.496Z,9.20
2018-07-11T12:44:50.536Z,8.30
2018-07-11T12:47:23.822Z,8.93
2018-07-11T12:49:51.873Z,10.18
2018-07-11T12:52:19.941Z,8.80
2018-07-11T12:54:48.009Z,9.25
2018-07-11T12:57:16.032Z,8.23
2018-07-11T12:59:44.065Z,8.55
2018-07-11T13:02:12.423Z,7.12
2018-07-11T13:04:40.276Z,8.33
2018-07-11T13:07:08.136Z,7.97
2018-07-11T13:09:37.473Z,7.60
2018-07-11T13:12:06.108Z,8.38
2018-07-11T13:14:34.180Z,9.05
2018-07-11T13:17:02.224Z,7.75
2018-07-11T13:19:30.264Z,7.37
2018-07-11T13:21:58.311Z,9.43
2018-07-11T13:24:26.332Z,7.55
2018-07-11T13:26:54.347Z,8.30
2018-07-11T13:29:22.184Z,8.20
2018-07-11T13:31:50.200Z,8.70
2018-07-11T13:34:18.272Z,8.55
2018-07-11T13:36:46.388Z,7.92
2018-07-11T13:39:17.364Z,7.92
2018-07-11T13:41:45.931Z,12.25
2018-07-11T13:44:14.045Z,7.40
2018-07-11T13:46:42.178Z,7.83
2018-07-11T13:49:10.955Z,9.05
2018-07-11T13:51:38.988Z,8.33
2018-07-11T13:54:07.043Z,7.90
2018-07-11T13:56:35.456Z,8.10
2018-07-11T13:59:03.924Z,8.20
2018-07-11T14:01:31.993Z,8.13
2018-07-11T14:04:00.473Z,8.60
2018-07-11T14:06:28.480Z,9.50
2018-07-11T14:08:56.517Z,9.13
2018-07-11T14:11:24.700Z,10.00
2018-07-11T14:13:52.731Z,8.10
2018-07-11T14:16:21.048Z,9.13
2018-07-11T14:18:49.119Z,8.73
2018-07-11T14:21:17.144Z,9.50
2018-07-11T14:23:45.177Z,9.77
2018-07-11T14:26:14.542Z,10.00
2018-07-11T14:28:45.798Z,9.55
2018-07-11T14:31:15.025Z,11.13
2018-07-11T14:33:48.233Z,9.95
2018-07-11T14:36:16.511Z,10.88
2018-07-11T14:38:44.841Z,10.70
2018-07-11T14:41:12.872Z,10.75
2018-07-11T14:43:40.916Z,11.50
2018-07-11T14:46:08.948Z,11.35
2018-07-11T14:48:36.995Z,12.70
2018-07-11T14:51:05.032Z,12.03
2018-07-11T14:53:32.972Z,11.00
2018-07-11T14:56:01.001Z,10.00
2018-07-11T14:58:29.044Z,10.00
2018-07-11T15:00:57.080Z,10.10
2018-07-11T15:03:25.109Z,10.93
2018-07-11T15:05:53.156Z,10.45
2018-07-11T15:08:21.353Z,9.70
2018-07-11T15:10:49.276Z,9.35
2018-07-11T15:13:17.312Z,9.20
2018-07-11T15:15:45.353Z,9.10
2018-07-11T15:18:13.901Z,9.28
2018-07-11T15:20:41.924Z,9.60
2018-07-11T15:23:09.952Z,9.10
2018-07-11T15:25:37.976Z,9.60
2018-07-11T15:28:06.225Z,9.50
2018-07-11T15:30:34.232Z,9.83
2018-07-11T15:33:02.252Z,8.35
2018-07-11T15:35:30.284Z,8.80
2018-07-11T15:37:58.316Z,8.65
2018-07-11T15:40:26.373Z,9.90
2018-07-11T15:42:54.412Z,9.55
2018-07-11T15:45:22.307Z,9.33
2018-07-11T15:47:50.280Z,9.55
2018-07-11T15:50:18.304Z,9.70
2018-07-11T15:52:46.314Z,10.63
2018-07-11T15:55:14.384Z,10.40
2018-07-11T15:57:51.712Z,11.20
2018-07-11T16:00:29.592Z,10.60
2018-07-11T16:02:58.234Z,10.55
2018-07-11T16:05:28.624Z,11.10
2018-07-11T16:07:58.253Z,11.55
2018-07-11T16:10:29.486Z,10.90
2018-07-11T16:12:57.533Z,11.20
2018-07-11T16:15:25.572Z,10.60
2018-07-11T16:17:53.632Z,10.90
2018-07-11T16:20:21.693Z,10.90
2018-07-11T16:22:49.822Z,11.12
2018-07-11T16:25:17.871Z,10.78
2018-07-11T16:27:45.940Z,11.30
2018-07-11T16:30:13.991Z,11.12
2018-07-11T16:32:42.048Z,11.68
2018-07-11T16:35:09.892Z,10.98
2018-07-11T16:37:37.924Z,10.63
2018-07-11T16:40:05.968Z,10.60
2018-07-11T16:42:35.585Z,10.50
2018-07-11T16:45:03.613Z,10.20
2018-07-11T16:47:31.641Z,9.60
2018-07-11T16:49:59.678Z,10.00
2018-07-11T16:52:27.736Z,11.30
2018-07-11T16:54:55.798Z,10.95
2018-07-11T16:57:28.024Z,9.10
2018-07-11T17:00:04.063Z,8.20
2018-07-11T17:02:32.025Z,7.30
2018-07-11T17:05:03.188Z,8.90
2018-07-11T17:07:31.217Z,8.38
2018-07-11T17:10:01.388Z,7.30
2018-07-11T17:12:29.436Z,6.90
2018-07-11T17:14:58.461Z,6.65
2018-07-11T17:17:32.572Z,6.07
2018-07-11T17:20:08.844Z,5.87
2018-07-11T17:22:46.926Z,5.50
2018-07-11T17:25:14.964Z,6.33
2018-07-11T17:27:42.988Z,6.20
2018-07-11T17:30:11.016Z,7.30
2018-07-11T17:32:39.090Z,7.28
2018-07-11T17:35:07.117Z,6.30
2018-07-11T17:37:35.464Z,6.30
2018-07-11T17:40:09.616Z,6.10
2018-07-11T17:42:37.454Z,6.60
2018-07-11T17:45:08.113Z,7.00
2018-07-11T17:47:44.716Z,6.57
2018-07-11T17:50:12.737Z,7.35
2018-07-11T17:53:51.476Z,7.87
2018-07-11T17:56:20.952Z,8.28
2018-07-11T17:58:54.244Z,7.87
2018-07-11T18:01:42.516Z,8.40
2018-07-11T18:05:24.840Z,8.45
2018-07-11T18:07:53.164Z,9.10
2018-07-11T18:10:48.877Z,9.25
2018-07-11T18:13:54.496Z,10.58
2018-07-11T18:16:35.851Z,11.83
2018-07-11T18:19:10.116Z,10.78
2018-07-11T18:21:40.972Z,10.80
2018-07-11T18:24:36.354Z,10.32
2018-07-11T18:27:16.856Z,10.53
2018-07-11T18:29:53.844Z,10.30
2018-07-11T18:32:42.675Z,11.00
2018-07-11T18:35:32.989Z,11.60
2018-07-11T18:39:12.186Z,12.13
2018-07-11T18:41:58.063Z,12.28
2018-07-11T18:44:33.548Z,10.10
2018-07-11T18:49:19.965Z,11.10
2018-07-11T18:52:02.041Z,9.60
2018-07-11T18:55:42.488Z,9.28
2018-07-11T18:58:19.675Z,8.90
2018-07-11T19:00:57.384Z,8.60
2018-07-11T19:03:32.855Z,8.70
2018-07-11T19:06:17.477Z,7.97
2018-07-11T19:09:04.653Z,7.58
2018-07-11T19:11:43.816Z,7.90
2018-07-11T19:14:15.449Z,7.30
2018-07-11T19:16:46.840Z,7.60
2018-07-11T19:19:19.776Z,8.20
2018-07-11T19:21:53.696Z,8.10
2018-07-11T19:25:32.747Z,7.58
2018-07-11T19:28:12.189Z,8.10
2018-07-11T19:30:55.267Z,9.65
2018-07-11T19:33:28.671Z,19.52
2018-07-11T19:37:06.889Z,11.40
2018-07-11T19:39:36.602Z,12.03
2018-07-11T19:42:10.278Z,10.53
2018-07-11T19:44:57.951Z,9.05
2018-07-11T19:48:44.825Z,9.78
2018-07-11T19:51:52.487Z,12.43
2018-07-11T19:54:34.637Z,10.07
2018-07-11T19:57:02.689Z,10.00
2018-07-11T19:59:30.736Z,10.30
2018-07-11T20:01:58.804Z,10.65
2018-07-11T20:04:26.831Z,9.18
2018-07-11T20:06:54.667Z,10.00
2018-07-11T20:09:22.751Z,11.83
2018-07-11T20:11:52.097Z,10.08
2018-07-11T20:14:20.672Z,9.70
2018-07-11T20:16:48.913Z,10.78
2018-07-11T20:19:17.380Z,9.90
2018-07-11T20:21:45.429Z,10.72
2018-07-11T20:24:13.448Z,10.82
2018-07-11T20:26:41.486Z,12.73
2018-07-11T20:29:09.612Z,13.90
2018-07-11T20:31:37.746Z,11.83
2018-07-11T20:34:05.775Z,14.37
2018-07-11T20:36:33.795Z,11.40
2018-07-11T20:39:01.834Z,11.70
2018-07-11T20:41:29.886Z,14.43
2018-07-11T20:43:57.916Z,11.73
2018-07-11T20:46:26.476Z,11.33
2018-07-11T20:48:54.420Z,14.05
2018-07-11T20:51:22.435Z,12.40
2018-07-11T20:53:50.479Z,11.95
2018-07-11T20:56:18.549Z,12.55
2018-07-11T20:58:58.124Z,13.22
2018-07-11T21:01:37.788Z,13.55
2018-07-11T21:08:23.056Z,12.30
2018-07-11T21:10:56.458Z,17.30
2018-07-11T21:13:38.630Z,18.02
2018-07-11T21:16:15.162Z,16.12
2018-07-11T21:18:56.920Z,16.27
2018-07-11T21:21:24.751Z,16.35
2018-07-11T21:23:52.796Z,20.43
2018-07-11T21:26:21.085Z,21.57
2018-07-11T21:28:49.172Z,22.27
2018-07-11T21:31:17.224Z,24.37
2018-07-11T21:33:45.664Z,22.15
2018-07-11T21:36:13.702Z,20.88
2018-07-11T21:38:41.772Z,22.35
2018-07-11T21:41:09.848Z,21.60
2018-07-11T21:43:37.924Z,22.30
2018-07-11T21:46:05.924Z,23.02
2018-07-11T21:48:33.972Z,24.00
2018-07-11T21:51:01.798Z,23.98
2018-07-11T21:53:29.895Z,25.82
2018-07-11T21:55:58.135Z,24.00
2018-07-11T21:58:26.184Z,24.65
2018-07-11T22:00:55.753Z,25.90
2018-07-11T22:03:23.596Z,25.30
2018-07-11T22:05:51.640Z,26.60
2018-07-11T22:08:19.684Z,27.80
2018-07-11T22:10:47.729Z,24.20
2018-07-11T22:13:15.560Z,25.82
2018-07-11T22:15:43.609Z,24.45
2018-07-11T22:18:23.112Z,25.90
2018-07-11T22:20:50.265Z,25.10
2018-07-11T22:23:17.428Z,24.90
2018-07-11T22:25:44.544Z,27.67
2018-07-11T22:28:11.687Z,26.80
2018-07-11T22:30:38.828Z,26.75
2018-07-11T22:33:05.959Z,25.27
2018-07-11T22:35:33.100Z,23.60
2018-07-11T22:38:00.232Z,24.90
2018-07-11T22:40:27.373Z,24.30
2018-07-11T22:42:54.518Z,26.20
2018-07-11T22:45:21.667Z,24.47
2018-07-11T22:47:48.824Z,25.52
2018-07-11T22:50:15.953Z,25.88
2018-07-11T22:52:43.092Z,26.30
2018-07-11T22:55:10.234Z,28.15
2018-07-11T22:57:37.617Z,28.42
2018-07-11T23:00:04.758Z,29.05
2018-07-11T23:02:31.884Z,28.10
2018-07-11T23:04:59.279Z,27.98
2018-07-11T23:07:26.404Z,27.90
2018-07-11T23:09:53.535Z,27.90
2018-07-11T23:12:20.670Z,29.80
2018-07-11T23:14:47.809Z,29.30
2018-07-11T23:17:14.940Z,29.20
2018-07-11T23:19:42.092Z,28.20
2018-07-11T23:22:09.236Z,28.55
2018-07-11T23:24:36.381Z,28.83
2018-07-11T23:27:03.523Z,30.60
2018-07-11T23:29:30.661Z,31.12
2018-07-11T23:31:57.787Z,31.23
2018-07-11T23:34:24.920Z,32.38
2018-07-11T23:36:52.060Z,34.55
2018-07-11T23:39:19.193Z,35.15
2018-07-11T23:41:46.329Z,35.45
2018-07-11T23:44:13.478Z,36.20
2018-07-11T23:46:40.609Z,37.40
2018-07-11T23:49:07.744Z,35.98
2018-07-11T23:51:34.892Z,35.50
2018-07-11T23:54:02.031Z,33.83
2018-07-11T23:56:29.157Z,34.63
2018-07-11T23:58:56.293Z,33.65
